createdAt,value
2018-11-06T00:04:33.749Z,94611.17
2018-11-06T00:09:37.071Z,94606.62
2018-11-06T00:14:41.170Z,94604.82
2018-11-06T01:46:01.538Z,94576.88
2018-11-06T01:51:05.639Z,94573.11
2018-11-06T01:56:08.954Z,94566.16
2018-11-06T03:33:17.328Z,94575.89
2018-11-06T03:38:47.738Z,94576.14
2018-11-06T03:43:51.090Z,94572.70
2018-11-06T04:46:26.222Z,94552.56
2018-11-06T04:51:29.555Z,94550.27
2018-11-06T04:56:32.879Z,94543.75
2018-11-06T05:35:57.571Z,94553.66
2018-11-06T05:41:01.655Z,94551.69
2018-11-06T05:46:05.015Z,94553.33
2018-11-06T05:51:09.102Z,94560.29
2018-11-06T05:56:12.431Z,94559.06
2018-11-06T06:01:15.770Z,94557.91
2018-11-06T06:06:19.871Z,94566.27
2018-11-06T06:11:23.196Z,94581.63
2018-11-06T06:16:27.288Z,94572.12
2018-11-06T06:21:30.614Z,94572.49
2018-11-06T06:26:33.943Z,94575.58
2018-11-06T06:31:44.060Z,94579.53
2018-11-06T06:36:47.401Z,94579.80
2018-11-06T06:41:50.738Z,94582.50
2018-11-06T06:46:54.067Z,94579.21
2018-11-06T06:51:58.151Z,94566.06
2018-11-06T06:57:15.106Z,94565.21
2018-11-06T07:02:18.442Z,94564.13
2018-11-06T07:07:22.535Z,94569.72
2018-11-06T07:12:25.864Z,94574.45
2018-11-06T07:17:29.196Z,94572.75
2018-11-06T07:22:33.284Z,94576.67
2018-11-06T07:27:37.514Z,94575.27
2018-11-06T08:01:26.746Z,94554.56
2018-11-06T08:06:30.186Z,94557.97
2018-11-06T08:11:33.426Z,94547.39
2018-11-06T09:02:38.418Z,94514.98
2018-11-06T09:07:41.641Z,94515.77
2018-11-06T09:12:45.738Z,94514.50
2018-11-06T10:03:50.238Z,94516.80
2018-11-06T10:08:54.332Z,94503.86
2018-11-06T10:13:57.659Z,94504.06
2018-11-06T11:05:03.007Z,94473.21
2018-11-06T11:10:06.343Z,94464.17
2018-11-06T11:15:10.614Z,94462.18
2018-11-06T12:00:56.444Z,94416.45
2018-11-06T12:05:59.776Z,94412.78
2018-11-06T12:11:03.113Z,94405.17
2018-11-06T13:02:08.315Z,94376.42
2018-11-06T13:07:11.655Z,94372.58
2018-11-06T13:12:14.988Z,94377.66
2018-11-06T14:03:19.889Z,94350.31
2018-11-06T14:08:23.244Z,94343.69
2018-11-06T14:13:27.334Z,94339.88
2018-11-06T15:04:31.381Z,94356.23
2018-11-06T15:09:34.716Z,94357.97
2018-11-06T15:14:38.054Z,94352.32
2018-11-06T15:48:27.681Z,94354.75
2018-11-06T15:53:30.978Z,94358.05
2018-11-06T15:58:34.317Z,94356.73
2018-11-06T16:32:23.958Z,94382.33
2018-11-06T16:37:27.283Z,94386.80
2018-11-06T16:42:31.377Z,94383.58
2018-11-06T16:47:34.722Z,94388.73
2018-11-06T16:52:38.817Z,94379.66
2018-11-06T16:57:42.150Z,94381.83
2018-11-06T17:02:45.484Z,94386.01
2018-11-06T17:07:49.587Z,94394.77
2018-11-06T17:12:54.886Z,94397.30
2018-11-06T17:17:58.251Z,94401.37
2018-11-06T17:23:02.454Z,94398.76
2018-11-06T17:28:10.547Z,94400.08
2018-11-06T17:33:15.590Z,94398.71
2018-11-06T17:44:09.919Z,94399.06
2018-11-06T17:49:13.258Z,94400.52
2018-11-06T17:54:17.359Z,94414.11
2018-11-06T17:59:20.710Z,94409.52
2018-11-06T18:04:24.415Z,94403.14
2018-11-06T18:09:28.655Z,94416.68
2018-11-06T18:14:32.015Z,94417.16
2018-11-06T18:19:35.339Z,94412.88
2018-11-06T18:24:38.696Z,94410.08
2018-11-06T18:29:42.778Z,94411.88
2018-11-06T18:34:46.266Z,94416.85
2018-11-06T18:39:49.728Z,94418.02
2018-11-06T18:44:53.176Z,94424.19
2018-11-06T18:49:56.521Z,94421.74
2018-11-06T18:54:59.866Z,94421.96
2018-11-06T19:00:03.220Z,94424.50
2018-11-06T19:05:06.567Z,94429.53
2018-11-06T19:10:10.115Z,94432.69
2018-11-06T19:15:13.461Z,94437.28
2018-11-06T19:20:16.800Z,94463.19
2018-11-06T19:25:20.130Z,94507.13
2018-11-06T19:30:23.474Z,94509.45
2018-11-06T19:35:26.818Z,94508.94
2018-11-06T19:40:30.187Z,94517.95
2018-11-06T19:45:33.495Z,94518.45
2018-11-06T19:50:36.955Z,94517.62
2018-11-06T19:55:40.334Z,94534.83
2018-11-06T20:00:43.751Z,94556.86
2018-11-06T20:05:47.179Z,94563.59
2018-11-06T20:10:50.367Z,94560.45
2018-11-06T20:15:53.737Z,94574.66
2018-11-06T20:20:57.823Z,94588.77
2018-11-06T20:26:01.158Z,94600.75
2018-11-06T20:31:05.343Z,94614.89
2018-11-06T20:36:08.672Z,94624.93
2018-11-06T20:41:12.058Z,94625.37
2018-11-06T20:46:15.417Z,94641.92
2018-11-06T20:51:18.730Z,94637.80
2018-11-06T20:56:22.827Z,94646.79
2018-11-06T21:01:26.170Z,94656.67
2018-11-06T21:06:29.538Z,94658.66
2018-11-06T21:11:32.909Z,94655.15
2018-11-06T21:16:36.203Z,94667.81
2018-11-06T21:21:39.540Z,94675.27
2018-11-06T21:26:43.702Z,94681.84
2018-11-06T21:31:47.027Z,94691.23
2018-11-06T21:36:50.364Z,94689.02
2018-11-06T21:41:53.704Z,94683.38
2018-11-06T21:46:57.795Z,94697.88
2018-11-06T21:52:01.128Z,94701.90
2018-11-06T21:57:08.403Z,94702.18
2018-11-06T22:02:11.747Z,94707.89
2018-11-06T22:07:22.590Z,94727.36
2018-11-06T22:12:25.958Z,94739.64
2018-11-06T22:17:36.791Z,94744.97
2018-11-06T22:22:40.118Z,94753.78
2018-11-06T22:27:43.466Z,94751.52
2018-11-06T22:32:47.571Z,94755.73
2018-11-06T22:38:04.134Z,94765.83
2018-11-06T22:43:07.399Z,94773.73
2018-11-06T22:48:10.726Z,94780.20
2018-11-06T22:53:14.126Z,94778.39
2018-11-06T22:58:17.415Z,94783.34
2018-11-06T23:03:20.742Z,94786.43
2018-11-06T23:08:24.070Z,94784.84
2018-11-06T23:13:27.403Z,94786.30
2018-11-06T23:18:30.731Z,94789.63
2018-11-06T23:23:34.818Z,94797.36
2018-11-06T23:28:38.146Z,94806.77
2018-11-06T23:33:41.482Z,94803.41
2018-11-06T23:38:45.569Z,94811.84
2018-11-06T23:43:48.899Z,94819.46
2018-11-06T23:48:52.226Z,94822.42
2018-11-06T23:53:55.547Z,94827.90
2018-11-06T23:58:58.879Z,94827.70
